Data for 01/16/2016

Time Sea-Level Adjusted Pressure Absolute Pressure Temperature Relative Humidity Dew Point   
(mb) (inHg) (mb) (inHg) (C) (F) (%) (C) (F)
00:05 1016 30 845 24.95 -4.3 24.3 66 -9.7 14.6
00:10 1016 30 845 24.95 -4.3 24.3 66 -9.7 14.6
00:15 1016 30 845 24.95 -4.3 24.3 67 -9.6 14.7
00:20 1016 30 845 24.95 -4.6 23.8 68 -9.7 14.6
00:25 1015 29.97 845 24.95 -4.8 23.3 68 -9.9 14.1
00:30 1016 30 845 24.95 -4.9 23.2 68 -10 14
00:35 1016 30 845 24.95 -4.8 23.3 67 -10 14
00:40 1016 30 845 24.95 -4.7 23.5 67 -10 14
00:45 1016 30 845 24.95 -4.6 23.7 66 -10 14
00:50 1016 30 845 24.95 -4.6 23.7 66 -10 13.9
00:55 1016 30 845 24.95 -4.6 23.7 66 -10.1 13.9
01:00 1016 30 845 24.95 -4.6 23.7 66 -10.1 13.8
01:05 1016 30 845 24.95 -4.5 23.9 65 -10.2 13.6
01:10 1015 29.97 845 24.95 -4.5 24 65 -10.2 13.7
01:15 1015 29.97 845 24.95 -4.4 24.1 66 -9.8 14.3
01:20 1015 29.97 845 24.95 -4.4 24.1 64 -10.3 13.5
01:25 1015 29.97 845 24.95 -4.3 24.2 64 -10.2 13.7
01:30 1015 29.97 845 24.95 -4.4 24.1 64 -10.2 13.6
01:35 1015 29.97 845 24.95 -4.6 23.8 64 -10.3 13.4
01:40 1015 29.97 844 24.92 -4.7 23.6 66 -10.1 13.7
01:45 1015 29.97 845 24.95 -4.7 23.5 63 -10.8 12.5
01:50 1015 29.97 845 24.95 -4.1 24.6 59 -11.1 12.1
01:55 1015 29.97 845 24.95 -3.8 25.2 57 -11.1 12.1
02:00 1015 29.97 844 24.92 -3.8 25.2 59 -10.7 12.7
02:05 1015 29.97 844 24.92 -3.8 25.2 58 -11 12.2
02:10 1015 29.97 845 24.95 -3.8 25.2 57 -11.2 11.9
02:15 1015 29.97 845 24.95 -3.8 25.2 58 -11 12.3
02:20 1015 29.97 845 24.95 -3.8 25.2 57 -11.2 11.8
02:25 1015 29.97 845 24.95 -3.7 25.3 57 -11.2 11.9
02:30 1015 29.97 845 24.95 -3.8 25.2 56 -11.3 11.7
02:35 1015 29.97 844 24.92 -3.9 25.1 57 -11.2 11.8
02:40 1015 29.97 844 24.92 -3.9 24.9 56 -11.5 11.3
02:45 1015 29.97 844 24.92 -4 24.9 55 -11.7 10.9
02:50 1015 29.97 844 24.92 -4 24.8 55 -11.6 11
02:55 1015 29.97 845 24.95 -4 24.8 55 -11.7 10.9
03:00 1015 29.97 845 24.95 -4 24.7 55 -11.9 10.6
03:05 1015 29.97 845 24.95 -4.1 24.7 56 -11.6 11.1
03:10 1015 29.97 845 24.95 -4.1 24.6 55 -11.9 10.6
03:15 1015 29.97 844 24.92 -4 24.8 55 -11.9 10.7
03:20 1015 29.97 845 24.95 -4 24.8 55 -11.8 10.8
03:25 1015 29.97 845 24.95 -4 24.7 55 -11.8 10.8
03:30 1015 29.97 845 24.95 -4.1 24.6 55 -11.9 10.6
03:35 1015 29.97 845 24.95 -3.9 24.9 53 -12.2 10.1
03:40 1015 29.97 845 24.95 -3.8 25.1 53 -12 10.4
03:45 1015 29.97 845 24.95 -3.8 25.1 54 -11.9 10.5
03:50 1015 29.97 845 24.95 -3.9 25 55 -11.7 10.9
03:55 1015 29.97 845 24.95 -4 24.8 55 -11.8 10.8
04:00 1015 29.97 845 24.95 -4.1 24.7 55 -11.7 10.9
04:05 1015 29.97 845 24.95 -4 24.7 55 -11.7 10.9
04:10 1015 29.97 845 24.95 -4.1 24.7 55 -11.8 10.7
04:15 1015 29.97 845 24.95 -4 24.8 55 -11.9 10.6
04:20 1015 29.97 844 24.92 -4 24.7 55 -11.9 10.6
04:25 1015 29.97 844 24.92 -4.3 24.3 54 -12.2 10.1
04:30 1015 29.97 844 24.92 -4.2 24.4 55 -11.9 10.6
04:35 1015 29.97 844 24.92 -4.3 24.3 55 -12.1 10.2
04:40 1015 29.97 844 24.92 -4.1 24.6 53 -12.3 9.9
04:45 1015 29.97 844 24.92 -4 24.8 54 -12.1 10.2
04:50 1015 29.97 844 24.92 -4 24.8 54 -12 10.4
04:55 1015 29.97 844 24.92 -4 24.8 53 -12.3 9.9
05:00 1015 29.97 844 24.92 -4 24.8 53 -12.1 10.2
05:05 1015 29.97 844 24.92 -4 24.9 54 -11.9 10.5
05:10 1015 29.97 844 24.92 -4 24.8 56 -11.6 11.1
05:15 1015 29.97 844 24.92 -4 24.8 54 -12 10.3
05:20 1015 29.97 844 24.92 -3.9 24.9 53 -12.2 10
05:25 1015 29.97 844 24.92 -3.7 25.3 50 -12.8 9
05:30 1015 29.97 844 24.92 -3.5 25.6 51 -12.3 9.9
05:35 1015 29.97 844 24.92 -3.5 25.7 51 -12.3 9.9
05:40 1015 29.97 844 24.92 -3.5 25.7 51 -12.2 10
05:45 1015 29.97 844 24.92 -3.6 25.5 54 -11.6 11.2
05:50 1015 29.97 844 24.92 -4 24.9 55 -11.6 11
05:55 1015 29.97 844 24.92 -4.1 24.5 55 -11.9 10.6
06:00 1015 29.97 844 24.92 -4.1 24.6 55 -11.9 10.6
06:05 1015 29.97 844 24.92 -4.1 24.6 55 -11.9 10.7
06:10 1015 29.97 844 24.92 -4.1 24.7 56 -11.7 11
06:15 1015 29.97 844 24.92 -4 24.8 55 -11.8 10.8
06:20 1015 29.97 844 24.92 -4 24.8 55 -11.7 10.9
06:25 1015 29.97 844 24.92 -4.1 24.6 56 -11.7 10.9
06:30 1015 29.97 844 24.92 -4.1 24.6 55 -11.8 10.7
06:35 1015 29.97 844 24.92 -4.2 24.5 55 -11.9 10.6
06:40 1015 29.97 844 24.92 -4.1 24.5 55 -11.9 10.7
06:45 1015 29.97 844 24.92 -4.1 24.5 55 -11.9 10.6
06:50 1015 29.97 844 24.92 -4.1 24.6 55 -11.8 10.7
06:55 1015 29.97 844 24.92 -4.2 24.4 56 -11.8 10.7
07:00 1015 29.97 844 24.92 -4.3 24.3 56 -11.7 10.9
07:05 1015 29.97 844 24.92 -4.3 24.2 57 -11.5 11.2
07:10 1015 29.97 844 24.92 -4.4 24 58 -11.5 11.3
07:15 1015 29.97 844 24.92 -4.5 23.9 57 -11.7 10.9
07:20 1015 29.97 844 24.92 -4.5 23.8 58 -11.7 11
07:25 1015 29.97 844 24.92 -4.6 23.8 58 -11.6 11.1
07:30 1015 29.97 844 24.92 -4.5 23.8 57 -11.8 10.8
07:35 1015 29.97 844 24.92 -4.5 23.9 57 -11.7 11
07:40 1015 29.97 844 24.92 -4.6 23.8 58 -11.6 11.2
07:45 1015 29.97 844 24.92 -4.7 23.6 59 -11.6 11.1
07:50 1015 29.97 844 24.92 -4.9 23.2 61 -11.2 11.8
07:55 1015 29.97 844 24.92 -5.2 22.7 62 -11.4 11.5
08:00 1015 29.97 844 24.92 -5.3 22.4 62 -11.5 11.3
08:05 1015 29.97 844 24.92 -5.3 22.4 61 -11.8 10.7
08:10 1015 29.97 844 24.92 -5.2 22.6 60 -11.8 10.7
08:15 1015 29.97 844 24.92 -5.1 22.8 60 -11.7 10.9
08:20 1015 29.97 844 24.92 -5.1 22.8 59 -11.9 10.6
08:25 1015 29.97 844 24.92 -4.9 23.1 57 -12.3 9.9
08:30 1015 29.97 844 24.92 -4.8 23.3 58 -12 10.4
08:35 1015 29.97 844 24.92 -4.9 23.2 58 -11.9 10.7
08:40 1015 29.97 844 24.92 -4.9 23.2 59 -11.8 10.8
08:45 1015 29.97 844 24.92 -4.8 23.3 57 -12 10.4
08:50 1015 29.97 844 24.92 -4.8 23.4 59 -11.7 11
08:55 1015 29.97 844 24.92 -4.9 23.2 59 -11.7 10.9
09:00 1015 29.97 844 24.92 -4.9 23.1 59 -11.8 10.7
09:05 1015 29.97 844 24.92 -4.9 23.2 57 -12.1 10.2
09:10 1015 29.97 844 24.92 -4.8 23.3 58 -11.8 10.7
09:15 1015 29.97 844 24.92 -4.9 23.1 58 -12 10.5
09:20 1015 29.97 844 24.92 -5 22.9 58 -12 10.4
09:25 1015 29.97 844 24.92 -5 23.1 58 -12.1 10.2
09:30 1015 29.97 844 24.92 -5 23.1 58 -12.1 10.3
09:35 1015 29.97 844 24.92 -4.8 23.3 59 -11.8 10.8
09:40 1015 29.97 844 24.92 -4.9 23.2 60 -11.4 11.4
09:45 1015 29.97 844 24.92 -5 23 60 -11.5 11.2
09:50 1015 29.97 845 24.95 -4.9 23.1 61 -11.4 11.5
09:55 1015 29.97 845 24.95 -4.9 23.2 61 -11.4 11.5
10:00 1015 29.97 845 24.95 -5.2 22.7 61 -11.6 11.1
10:05 1015 29.97 845 24.95 -5.1 22.8 60 -11.7 10.9
10:10 1015 29.97 845 24.95 -5.2 22.7 61 -11.7 11
10:15 1015 29.97 845 24.95 -5.3 22.4 62 -11.6 11.1
10:20 1015 29.97 845 24.95 -5.3 22.4 60 -11.8 10.7
10:25 1015 29.97 845 24.95 -5.3 22.4 61 -11.7 10.9
10:30 1015 29.97 845 24.95 -5.2 22.7 61 -11.7 11
10:35 1015 29.97 845 24.95 -4.9 23.3 60 -11.6 11.2
10:40 1015 29.97 845 24.95 -4.7 23.6 58 -11.7 11
10:45 1015 29.97 845 24.95 -4.6 23.7 59 -11.4 11.5
10:50 1015 29.97 845 24.95 -4.3 24.3 58 -11.3 11.6
10:55 1015 29.97 845 24.95 -4.3 24.3 58 -11.3 11.6
11:00 1015 29.97 845 24.95 -4.2 24.4 57 -11.4 11.5
11:05 1015 29.97 845 24.95 -4 24.8 58 -11 12.1
11:10 1015 29.97 845 24.95 -3.7 25.3 57 -11.1 12
11:15 1015 29.97 845 24.95 -3.8 25.1 54 -11.8 10.8
11:20 1015 29.97 845 24.95 -4.1 24.6 56 -11.6 11.1
11:25 1015 29.97 845 24.95 -4.1 24.7 55 -11.7 10.9
11:30 1015 29.97 845 24.95 -3.8 25.2 55 -11.6 11.1
11:35 1015 29.97 845 24.95 -3.3 26 53 -11.7 11
11:40 1015 29.97 844 24.92 -3 26.6 52 -11.4 11.4
11:45 1015 29.97 844 24.92 -2.7 27.1 50 -11.7 10.9
11:50 1015 29.97 844 24.92 -2.4 27.7 49 -11.6 11.1
11:55 1015 29.97 845 24.95 -2.3 27.8 49 -11.6 11.2
12:00 1015 29.97 844 24.92 -2.1 28.3 48 -11.6 11.1
12:05 1015 29.97 844 24.92 -1.7 28.9 47 -11.5 11.2
12:10 1015 29.97 844 24.92 -1.4 29.5 45 -11.8 10.7
12:15 1015 29.97 844 24.92 -1.3 29.7 46 -11.4 11.6
12:20 1015 29.97 844 24.92 -1.8 28.8 47 -11.7 10.9
12:25 1015 29.97 844 24.92 -2 28.4 50 -11.1 12
12:30 1015 29.97 844 24.92 -1.2 29.8 47 -11.3 11.7
12:35 1015 29.97 844 24.92 -1.9 28.6 48 -11.5 11.2
12:40 1015 29.97 844 24.92 -2.3 27.8 49 -11.6 11.2
12:45 1014 29.94 844 24.92 -2.3 27.8 49 -11.8 10.8
12:50 1014 29.94 844 24.92 -1.8 28.8 45 -12.1 10.2
12:55 1014 29.94 844 24.92 -1.7 28.9 48 -11.3 11.6
13:00 1014 29.94 844 24.92 -0.8 30.5 43 -11.9 10.6
13:05 1014 29.94 843 24.89 -0.4 31.4 43 -11.6 11.1
13:10 1014 29.94 843 24.89 -1.1 30.1 46 -11.3 11.7
13:15 1014 29.94 843 24.89 -1.1 30 45 -11.6 11.1
13:20 1014 29.94 843 24.89 -0.9 30.4 45 -11.5 11.3
13:25 1014 29.94 843 24.89 -0.3 31.5 43 -11.3 11.7
13:30 1014 29.94 843 24.89 -0.5 31.2 43 -11.5 11.2
13:35 1014 29.94 843 24.89 -0.8 30.6 43 -11.8 10.8
13:40 1014 29.94 843 24.89 -0.9 30.4 43 -11.9 10.6
13:45 1014 29.94 843 24.89 -0.8 30.6 42 -12.2 10.1
13:50 1014 29.94 843 24.89 -0.3 31.5 41 -12.1 10.3
13:55 1014 29.94 843 24.89 -0.2 31.6 40 -12.3 9.8
14:00 1013 29.91 843 24.89 -0.8 30.5 42 -12.2 10.1
14:05 1013 29.91 843 24.89 -0.4 31.2 42 -11.8 10.7
14:10 1013 29.91 842 24.86 -0.3 31.5 42 -11.6 11.2
14:15 1013 29.91 842 24.86 -0.5 31.2 42 -11.8 10.7
14:20 1013 29.91 842 24.86 -0.8 30.6 45 -11.4 11.5
14:25 1013 29.91 842 24.86 -0.8 30.5 44 -11.5 11.4
14:30 1013 29.91 842 24.86 -1.1 30.1 45 -11.6 11.2
14:35 1013 29.91 842 24.86 -1.2 29.8 46 -11.6 11.2
14:40 1013 29.91 842 24.86 -1.1 30 47 -11.1 12
14:45 1013 29.91 842 24.86 -1.4 29.6 48 -11 12.2
14:50 1013 29.91 842 24.86 -1.5 29.3 49 -10.9 12.3
14:55 1013 29.91 842 24.86 -1.1 29.9 47 -11.2 11.8
15:00 1013 29.91 842 24.86 -0.9 30.4 45 -11.4 11.5
15:05 1013 29.91 842 24.86 -0.2 31.6 44 -11.1 12.1
15:10 1013 29.91 842 24.86 0.1 32.1 41 -11.6 11.2
15:15 1013 29.91 842 24.86 0 32.1 43 -11.2 11.9
15:20 1013 29.91 842 24.86 -0 32 43 -11.1 12
15:25 1013 29.91 842 24.86 -0 32 43 -11.1 12.1
15:30 1013 29.91 842 24.86 -0.3 31.4 47 -10.4 13.3
15:35 1013 29.91 842 24.86 -1 30.2 50 -10.2 13.6
15:40 1013 29.91 842 24.86 -1.5 29.2 51 -10.4 13.2
15:45 1013 29.91 842 24.86 -1.8 28.8 52 -10.5 13.1
15:50 1013 29.91 842 24.86 -1.5 29.2 50 -10.6 13
15:55 1013 29.91 842 24.86 -1.4 29.5 51 -10.2 13.6
16:00 1013 29.91 842 24.86 -1.5 29.3 53 -9.8 14.4
16:05 1013 29.91 842 24.86 -1.7 28.9 56 -9.5 14.9
16:10 1013 29.91 843 24.89 -1.7 28.9 57 -9.1 15.7
16:15 1013 29.91 843 24.89 -1.7 29 55 -9.5 14.9
16:20 1013 29.91 843 24.89 -1.7 28.9 58 -8.9 16.1
16:25 1014 29.94 843 24.89 -1.8 28.8 59 -8.8 16.1
16:30 1014 29.94 843 24.89 -1.7 28.9 57 -9.1 15.7
16:35 1014 29.94 843 24.89 -2.1 28.2 59 -9.1 15.5
16:40 1014 29.94 843 24.89 -2.6 27.4 63 -8.6 16.5
16:45 1014 29.94 843 24.89 -2.8 27 64 -8.6 16.5
16:50 1014 29.94 843 24.89 -3.3 26.1 70 -8.1 17.5
16:55 1014 29.94 843 24.89 -3.8 25.2 76 -7.4 18.7
17:00 1014 29.94 843 24.89 -4 24.8 79 -7.1 19.2
17:05 1014 29.94 843 24.89 -4 24.8 81 -6.9 19.6
17:10 1014 29.94 843 24.89 -4 24.8 82 -6.6 20.1
17:15 1014 29.94 843 24.89 -4.2 24.4 85 -6.4 20.5
17:20 1014 29.94 843 24.89 -4.2 24.4 86 -6.2 20.8
17:25 1014 29.94 843 24.89 -4.3 24.3 87 -6.2 20.9
17:30 1014 29.94 843 24.89 -4.4 24 88 -6.1 21.1
17:35 1014 29.94 843 24.89 -4.4 24.1 89 -6 21.2
17:40 1014 29.94 843 24.89 -4.4 24 90 -5.9 21.4
17:45 1014 29.94 843 24.89 -4.3 24.2 90 -5.8 21.6
17:50 1014 29.94 843 24.89 -4.3 24.2 89 -5.8 21.6
17:55 1014 29.94 843 24.89 -4.3 24.3 90 -5.8 21.6
18:00 1014 29.94 843 24.89 -4.2 24.4 89 -5.7 21.7
18:05 1013 29.91 843 24.89 -4.2 24.4 89 -5.8 21.6
18:10 1013 29.91 843 24.89 -4.3 24.3 90 -5.7 21.7
18:15 1013 29.91 843 24.89 -4.3 24.2 90 -5.8 21.6
18:20 1013 29.91 843 24.89 -4.3 24.2 90 -5.8 21.6
18:25 1013 29.91 843 24.89 -4.5 24 90 -5.8 21.5
18:30 1013 29.91 843 24.89 -4.5 23.9 91 -5.8 21.5
18:35 1013 29.91 843 24.89 -4.4 24.1 91 -5.6 21.8
18:40 1013 29.91 843 24.89 -4.3 24.2 91 -5.6 21.8
18:45 1013 29.91 843 24.89 -4.4 24 91 -5.7 21.8
18:50 1013 29.91 842 24.86 -4.4 24.1 91 -5.6 21.8
18:55 1013 29.91 842 24.86 -4.4 24.1 91 -5.7 21.8
19:00 1013 29.91 842 24.86 -4.4 24 91 -5.6 21.8
19:05 1013 29.91 842 24.86 -4.4 24 92 -5.6 21.9
19:10 1013 29.91 842 24.86 -4.4 24 92 -5.6 21.9
19:15 1013 29.91 842 24.86 -4.4 24.1 92 -5.5 22
19:20 1013 29.91 842 24.86 -4.4 24.2 92 -5.5 22.1
19:25 1013 29.91 842 24.86 -4.3 24.2 92 -5.5 22.1
19:30 1013 29.91 842 24.86 -4.3 24.3 92 -5.4 22.3
19:35 1013 29.91 842 24.86 -4.2 24.5 92 -5.4 22.4
19:40 1013 29.91 842 24.86 -4.1 24.5 92 -5.3 22.4
19:45 1013 29.91 842 24.86 -4.1 24.6 92 -5.3 22.5
19:50 1013 29.91 842 24.86 -4.1 24.7 92 -5.2 22.6
19:55 1013 29.91 842 24.86 -4 24.7 92 -5.2 22.6
20:00 1013 29.91 842 24.86 -4 24.8 92 -5.1 22.8
20:05 1013 29.91 842 24.86 -4 24.9 92 -5.1 22.8
20:10 1013 29.91 842 24.86 -3.9 24.9 92 -5 23
20:15 1013 29.91 842 24.86 -3.9 25 92 -5 23.1
20:20 1013 29.91 842 24.86 -3.8 25.1 92 -4.9 23.1
20:25 1013 29.91 842 24.86 -3.8 25.1 92 -4.9 23.2
20:30 1013 29.91 842 24.86 -3.8 25.1 92 -4.9 23.2
20:35 1013 29.91 842 24.86 -3.8 25.1 93 -4.9 23.3
20:40 1013 29.91 842 24.86 -3.8 25.1 92 -4.9 23.2
20:45 1013 29.91 842 24.86 -3.9 25 93 -4.9 23.1
20:50 1013 29.91 842 24.86 -3.9 25.1 93 -4.9 23.2
20:55 1013 29.91 842 24.86 -3.8 25.1 93 -4.9 23.3
21:00 1013 29.91 842 24.86 -3.9 25.1 93 -4.9 23.2
21:05 1013 29.91 842 24.86 -3.8 25.1 93 -4.9 23.3
21:10 1013 29.91 843 24.89 -3.9 25 93 -4.9 23.2
21:15 1013 29.91 843 24.89 -3.8 25.1 93 -4.8 23.3
21:20 1013 29.91 843 24.89 -3.9 25 92 -4.9 23.1
21:25 1013 29.91 843 24.89 -3.9 25 92 -5 23
21:30 1013 29.91 843 24.89 -4 24.9 92 -5.1 22.9
21:35 1013 29.91 843 24.89 -4 24.7 92 -5.2 22.7
21:40 1013 29.91 843 24.89 -4.1 24.6 91 -5.3 22.4
21:45 1013 29.91 843 24.89 -4.2 24.4 91 -5.5 22.2
21:50 1013 29.91 843 24.89 -4.3 24.2 92 -5.5 22.1
21:55 1013 29.91 843 24.89 -4.3 24.2 92 -5.5 22.1
22:00 1013 29.91 843 24.89 -4.3 24.2 92 -5.5 22.1
22:05 1013 29.91 843 24.89 -4.4 24 92 -5.6 21.9
22:10 1013 29.91 843 24.89 -4.6 23.8 92 -5.7 21.7
22:15 1013 29.91 843 24.89 -4.7 23.5 92 -5.8 21.5
22:20 1013 29.91 843 24.89 -4.7 23.5 92 -5.8 21.5
22:25 1013 29.91 843 24.89 -4.8 23.4 93 -5.8 21.5
22:30 1013 29.91 843 24.89 -4.7 23.6 93 -5.7 21.7
22:35 1013 29.91 843 24.89 -4.6 23.7 93 -5.6 21.8
22:40 1013 29.91 843 24.89 -4.6 23.7 93 -5.6 21.9
22:45 1013 29.91 843 24.89 -4.5 23.8 93 -5.5 22
22:50 1013 29.91 843 24.89 -4.5 23.8 93 -5.6 22
22:55 1013 29.91 843 24.89 -4.5 23.9 93 -5.5 22.1
23:00 1013 29.91 843 24.89 -4.4 24 93 -5.5 22.2
23:05 1013 29.91 843 24.89 -4.4 24 93 -5.5 22.1
23:10 1013 29.91 843 24.89 -4.5 24 93 -5.5 22.1
23:15 1014 29.94 843 24.89 -4.5 24 92 -5.5 22.1
23:20 1014 29.94 843 24.89 -4.5 24 93 -5.5 22.1
23:25 1014 29.94 843 24.89 -4.5 23.9 93 -5.5 22.1
23:30 1014 29.94 843 24.89 -4.5 23.9 92 -5.5 22.1
23:35 1014 29.94 843 24.89 -4.4 24 93 -5.4 22.2
23:40 1014 29.94 843 24.89 -4.3 24.2 93 -5.3 22.4
23:45 1014 29.94 843 24.89 -4.3 24.3 93 -5.3 22.4
23:50 1014 29.94 843 24.89 -4.4 24.1 93 -5.4 22.2
23:55 1014 29.94 843 24.89 -4.4 24 92 -5.5 22.1
24:00 1014 29.94 843 24.89 -4.5 23.9 93 -5.5 22.1